Presteign, United Kingdom
Current Conditions -  °F | °C
As of 8:50 PM on Monday 22 Dec 2014 (Local Time) from EGOS Reporting Station
Broken Clouds Broken Clouds  
Wind Chill: 54°   Ceiling: 1700
Heat Index: 54°   Visibility: 6mi
Dew Point: 50°   Wind: 28mph
Humidity: 88%   Direction: 240°WSW
Pressure: 29.88"   Gusts: NA
Location:  52.28°N, 3°W
Report Text: EGOS 222050Z AUTO 24024KT 9999 BKN017/// SCT025/// 12/10 Q1012
Loading
Personal Weather Stations






























Interactive Weather Map New forecast layout! Learn more

10-Day Weather Forecast

Advertisements
Track Severe Weather on mobile